createdAt,value
2018-10-09T00:01:50.461Z,6.90
2018-10-09T00:04:18.708Z,6.40
2018-10-09T00:06:46.932Z,6.40
2018-10-09T00:09:15.150Z,6.80
2018-10-09T00:11:43.353Z,6.50
2018-10-09T00:14:11.567Z,6.60
2018-10-09T00:16:39.784Z,6.97
2018-10-09T00:19:08.009Z,7.00
2018-10-09T00:21:36.237Z,6.93
2018-10-09T00:24:04.481Z,6.80
2018-10-09T00:26:32.705Z,7.80
2018-10-09T00:29:00.950Z,7.27
2018-10-09T00:31:29.170Z,8.43
2018-10-09T00:33:57.398Z,8.10
2018-10-09T00:36:25.693Z,9.03
2018-10-09T00:38:53.928Z,10.03
2018-10-09T00:41:22.158Z,10.53
2018-10-09T00:43:50.399Z,10.80
2018-10-09T00:46:18.634Z,10.20
2018-10-09T00:48:46.907Z,9.47
2018-10-09T00:51:15.189Z,9.80
2018-10-09T00:53:43.402Z,9.13
2018-10-09T00:56:11.653Z,8.97
2018-10-09T00:58:39.857Z,8.57
2018-10-09T01:01:08.337Z,8.30
2018-10-09T01:03:36.585Z,7.87
2018-10-09T01:06:04.893Z,7.40
2018-10-09T01:08:33.120Z,9.13
2018-10-09T01:11:01.853Z,7.97
2018-10-09T01:13:31.194Z,8.60
2018-10-09T01:15:59.417Z,9.73
2018-10-09T01:18:27.628Z,8.83
2018-10-09T01:20:55.888Z,8.37
2018-10-09T01:23:24.077Z,8.37
2018-10-09T01:25:52.318Z,7.70
2018-10-09T01:28:20.574Z,8.10
2018-10-09T01:30:48.816Z,7.40
2018-10-09T01:33:20.117Z,6.60
2018-10-09T01:35:48.337Z,7.80
2018-10-09T01:38:16.573Z,7.43
2018-10-09T01:40:44.817Z,7.23
2018-10-09T01:43:13.014Z,7.53
2018-10-09T01:45:41.215Z,7.33
2018-10-09T01:48:09.457Z,8.33
2018-10-09T01:50:37.760Z,7.10
2018-10-09T01:53:06.028Z,7.33
2018-10-09T01:55:34.240Z,7.27
2018-10-09T01:58:02.501Z,6.83
2018-10-09T02:00:30.689Z,7.33
2018-10-09T02:02:58.921Z,6.50
2018-10-09T02:05:27.153Z,6.33
2018-10-09T02:07:55.498Z,6.60
2018-10-09T02:10:23.744Z,5.80
2018-10-09T02:12:51.970Z,6.87
2018-10-09T02:15:20.235Z,6.13
2018-10-09T02:17:48.711Z,6.90
2018-10-09T02:20:16.953Z,7.13
2018-10-09T02:22:46.082Z,6.50
2018-10-09T02:25:14.298Z,7.50
2018-10-09T02:27:42.544Z,6.67
2018-10-09T02:30:11.138Z,7.43
2018-10-09T02:32:39.386Z,7.53
2018-10-09T02:35:07.628Z,8.27
2018-10-09T02:37:39.742Z,8.87
2018-10-09T02:40:08.021Z,8.03
2018-10-09T02:42:36.258Z,9.07
2018-10-09T02:47:55.275Z,8.50
2018-10-09T02:50:25.585Z,8.20
2018-10-09T02:52:53.816Z,8.40
2018-10-09T02:55:22.067Z,7.93
2018-10-09T02:57:50.268Z,7.23
2018-10-09T03:00:18.500Z,8.60
2018-10-09T03:02:46.730Z,8.43
2018-10-09T03:05:14.957Z,9.37
2018-10-09T03:07:43.253Z,9.33
2018-10-09T03:10:11.456Z,12.50
2018-10-09T03:12:40.403Z,11.70
2018-10-09T03:15:08.771Z,10.03
2018-10-09T03:17:37.005Z,9.27
2018-10-09T03:20:05.278Z,8.60
2018-10-09T03:22:33.471Z,9.13
2018-10-09T03:25:01.673Z,9.20
2018-10-09T03:27:42.333Z,10.13
2018-10-09T03:30:11.657Z,11.03
2018-10-09T03:32:39.861Z,12.77
2018-10-09T03:35:08.286Z,12.23
2018-10-09T03:37:36.691Z,10.70
2018-10-09T03:40:04.985Z,10.53
2018-10-09T03:42:33.243Z,9.57
2018-10-09T03:45:01.810Z,11.67
2018-10-09T03:47:30.052Z,11.50
2018-10-09T03:49:58.268Z,10.90
2018-10-09T03:52:26.495Z,12.47
2018-10-09T03:54:54.730Z,11.57
2018-10-09T03:57:22.986Z,11.10
2018-10-09T03:59:51.189Z,9.43
2018-10-09T04:02:19.401Z,9.27
2018-10-09T04:04:47.734Z,9.17
2018-10-09T04:07:15.981Z,9.53
2018-10-09T04:09:44.576Z,9.43
2018-10-09T04:12:12.783Z,9.73
2018-10-09T04:14:42.036Z,10.30
2018-10-09T04:17:10.269Z,11.80
2018-10-09T04:19:38.484Z,11.13
2018-10-09T04:22:07.873Z,10.80
2018-10-09T04:24:36.138Z,10.87
2018-10-09T04:27:04.514Z,11.50
2018-10-09T04:29:32.832Z,10.97
2018-10-09T04:32:00.981Z,13.00
2018-10-09T04:34:29.216Z,13.73
2018-10-09T04:36:57.453Z,12.70
2018-10-09T04:39:25.676Z,13.47
2018-10-09T04:41:53.896Z,12.47
2018-10-09T04:44:22.110Z,12.07
2018-10-09T04:46:50.350Z,11.50
2018-10-09T04:49:18.570Z,9.60
2018-10-09T04:51:46.801Z,10.57
2018-10-09T04:54:15.046Z,10.30
2018-10-09T04:56:43.286Z,12.77
2018-10-09T04:59:11.577Z,12.63
2018-10-09T05:01:39.778Z,11.70
2018-10-09T05:04:07.989Z,11.47
2018-10-09T05:06:36.340Z,12.60
2018-10-09T05:09:07.751Z,13.17
2018-10-09T05:11:35.948Z,12.97
2018-10-09T05:14:04.199Z,14.17
2018-10-09T05:16:32.474Z,13.10
2018-10-09T05:19:00.680Z,14.50
2018-10-09T05:21:28.907Z,15.20
2018-10-09T05:23:57.205Z,14.83
2018-10-09T05:26:25.452Z,15.00
2018-10-09T05:28:54.029Z,15.57
2018-10-09T05:31:22.399Z,15.27
2018-10-09T05:33:54.112Z,16.33
2018-10-09T05:36:22.371Z,16.20
2018-10-09T05:38:50.601Z,16.23
2018-10-09T05:41:18.840Z,15.43
2018-10-09T05:43:47.087Z,17.10
2018-10-09T05:46:17.330Z,15.37
2018-10-09T05:48:45.521Z,14.10
2018-10-09T05:51:13.772Z,13.00
2018-10-09T05:53:41.974Z,13.30
2018-10-09T05:56:10.213Z,13.17
2018-10-09T05:58:38.424Z,13.03
2018-10-09T06:01:06.849Z,11.40
2018-10-09T06:03:35.065Z,13.13
2018-10-09T06:06:03.373Z,12.60
2018-10-09T06:08:31.721Z,12.80
2018-10-09T06:11:00.073Z,13.57
2018-10-09T06:13:29.361Z,12.70
2018-10-09T06:15:58.454Z,13.63
2018-10-09T06:18:26.699Z,12.57
2018-10-09T06:20:54.934Z,13.10
2018-10-09T06:23:24.091Z,12.23
2018-10-09T06:25:53.384Z,12.43
2018-10-09T06:28:21.626Z,11.57
2018-10-09T06:30:49.859Z,12.10
2018-10-09T06:33:18.133Z,13.10
2018-10-09T06:35:46.360Z,13.00
2018-10-09T06:38:14.592Z,13.03
2018-10-09T06:40:42.874Z,13.83
2018-10-09T06:43:11.049Z,14.30
2018-10-09T06:45:39.269Z,15.00
2018-10-09T06:48:07.573Z,15.77
2018-10-09T06:50:35.817Z,15.70
2018-10-09T06:53:04.074Z,15.27
2018-10-09T06:55:32.382Z,15.47
2018-10-09T06:58:00.621Z,15.40
2018-10-09T07:00:28.883Z,15.50
2018-10-09T07:02:59.905Z,15.33
2018-10-09T07:05:28.337Z,15.37
2018-10-09T07:07:57.045Z,14.77
2018-10-09T07:10:25.362Z,15.53
2018-10-09T07:12:53.650Z,14.53
2018-10-09T07:15:21.873Z,15.30
2018-10-09T07:17:53.516Z,14.43
2018-10-09T07:20:21.741Z,15.30
2018-10-09T07:22:49.960Z,14.03
2018-10-09T07:25:18.197Z,14.97
2018-10-09T07:27:46.518Z,15.47
2018-10-09T07:30:14.669Z,15.13
2018-10-09T07:32:42.915Z,16.83
2018-10-09T07:35:11.635Z,16.63
2018-10-09T07:37:41.079Z,17.50
2018-10-09T07:40:09.290Z,17.87
2018-10-09T07:42:39.530Z,17.87
2018-10-09T07:45:07.853Z,18.00
2018-10-09T07:47:36.109Z,20.67
2018-10-09T07:50:04.556Z,17.60
2018-10-09T07:52:32.854Z,17.87
2018-10-09T07:55:01.221Z,18.60
2018-10-09T07:57:29.441Z,17.97
2018-10-09T07:59:59.722Z,17.87
2018-10-09T08:02:29.008Z,18.70
2018-10-09T08:05:02.090Z,17.97
2018-10-09T08:07:31.337Z,18.93
2018-10-09T08:09:59.604Z,17.90
2018-10-09T08:12:29.907Z,18.53
2018-10-09T08:15:00.169Z,18.50
2018-10-09T08:17:28.421Z,19.13
2018-10-09T08:19:56.778Z,18.87
2018-10-09T08:22:25.129Z,17.33
2018-10-09T08:24:53.469Z,17.93
2018-10-09T08:27:25.016Z,17.13
2018-10-09T08:29:57.724Z,19.00
2018-10-09T08:32:26.063Z,18.10
2018-10-09T08:34:54.265Z,17.57
2018-10-09T08:37:25.825Z,17.23
2018-10-09T08:39:54.134Z,17.63
2018-10-09T08:42:22.356Z,17.53
2018-10-09T08:44:50.565Z,16.90
2018-10-09T08:47:20.926Z,16.40
2018-10-09T08:49:51.197Z,17.10
2018-10-09T08:52:19.498Z,18.37
2018-10-09T08:54:47.785Z,23.73
2018-10-09T08:57:16.071Z,18.80
2018-10-09T08:59:46.293Z,17.10
2018-10-09T09:02:14.553Z,18.60
2018-10-09T09:04:42.759Z,17.63
2018-10-09T09:07:10.966Z,16.63
2018-10-09T09:09:42.697Z,17.93
2018-10-09T09:12:10.842Z,17.30
2018-10-09T09:14:39.058Z,16.53
2018-10-09T09:17:07.295Z,15.90
2018-10-09T09:19:35.665Z,15.50
2018-10-09T09:22:03.908Z,15.23
2018-10-09T09:24:33.214Z,15.23
2018-10-09T09:27:01.788Z,16.13
2018-10-09T09:29:30.065Z,14.53
2018-10-09T09:31:59.366Z,15.27
2018-10-09T09:34:27.637Z,15.30
2018-10-09T09:36:55.908Z,16.00
2018-10-09T09:39:24.212Z,15.73
2018-10-09T09:41:52.463Z,14.40
2018-10-09T09:44:20.831Z,16.33
2018-10-09T09:46:49.117Z,15.30
2018-10-09T09:49:18.401Z,15.77
2018-10-09T09:51:46.741Z,15.20
2018-10-09T09:54:15.081Z,15.40
2018-10-09T09:56:43.366Z,14.57
2018-10-09T09:59:11.785Z,15.47
2018-10-09T10:01:41.506Z,14.80
2018-10-09T10:04:10.032Z,15.63
2018-10-09T10:06:38.290Z,14.97
2018-10-09T10:09:07.567Z,14.70
2018-10-09T10:11:35.843Z,15.53
2018-10-09T10:14:04.086Z,15.40
2018-10-09T10:16:38.861Z,14.83
2018-10-09T10:19:07.338Z,16.43
2018-10-09T10:21:48.437Z,15.73
2018-10-09T10:24:22.378Z,14.67
2018-10-09T10:26:52.697Z,14.60
2018-10-09T10:29:21.991Z,14.77
2018-10-09T10:31:50.377Z,15.33
2018-10-09T10:34:20.905Z,15.43
2018-10-09T10:36:50.504Z,14.50
2018-10-09T10:39:19.449Z,15.60
2018-10-09T10:41:51.008Z,14.57
2018-10-09T10:44:19.249Z,14.30
2018-10-09T10:46:47.515Z,14.83
2018-10-09T10:49:16.805Z,16.00
2018-10-09T10:51:45.670Z,15.43
2018-10-09T10:54:15.962Z,14.13
2018-10-09T10:56:44.194Z,14.77
2018-10-09T10:59:12.414Z,14.13
2018-10-09T11:01:40.707Z,14.90
2018-10-09T11:06:48.350Z,13.40
2018-10-09T11:09:17.659Z,14.10
2018-10-09T11:11:47.977Z,15.13
2018-10-09T11:14:16.282Z,13.67
2018-10-09T11:16:44.529Z,13.97
2018-10-09T11:19:12.740Z,12.93
2018-10-09T11:21:41.061Z,14.77
2018-10-09T11:24:09.205Z,14.03
2018-10-09T11:26:38.521Z,14.27
2018-10-09T11:29:06.744Z,13.73
2018-10-09T11:31:34.985Z,13.90
2018-10-09T11:34:03.226Z,12.07
2018-10-09T11:36:31.461Z,14.73
2018-10-09T11:38:59.778Z,14.33
2018-10-09T11:41:28.037Z,14.47
2018-10-09T11:43:56.253Z,14.13
2018-10-09T11:46:24.542Z,12.40
2018-10-09T11:48:52.777Z,14.63
2018-10-09T11:51:21.098Z,12.90
2018-10-09T11:53:49.345Z,14.13
2018-10-09T11:56:17.573Z,13.20
2018-10-09T11:58:45.899Z,13.57
2018-10-09T12:01:14.056Z,12.20
2018-10-09T12:03:42.257Z,11.93
2018-10-09T12:06:10.501Z,11.17
2018-10-09T12:08:38.748Z,12.37
2018-10-09T12:11:07.088Z,12.00
2018-10-09T12:13:35.271Z,11.10
2018-10-09T12:16:03.522Z,11.97
2018-10-09T12:18:31.882Z,11.37
2018-10-09T12:21:00.117Z,11.13
2018-10-09T12:23:28.350Z,13.53
2018-10-09T12:25:56.604Z,11.83
2018-10-09T12:28:24.861Z,11.40
2018-10-09T12:30:53.089Z,10.07
2018-10-09T12:33:21.394Z,9.70
2018-10-09T12:35:49.616Z,10.60
2018-10-09T12:38:17.933Z,11.60
2018-10-09T12:40:46.290Z,10.87
2018-10-09T12:43:14.568Z,12.20
2018-10-09T12:45:42.794Z,13.30
2018-10-09T12:48:13.145Z,13.23
2018-10-09T12:50:41.390Z,12.97
2018-10-09T12:53:09.633Z,13.30
2018-10-09T12:55:37.859Z,14.57
2018-10-09T12:58:06.073Z,13.70
2018-10-09T13:00:34.313Z,13.63
2018-10-09T13:03:02.593Z,13.00
2018-10-09T13:05:30.844Z,13.10
2018-10-09T13:07:59.093Z,13.53
2018-10-09T13:10:27.390Z,15.00
2018-10-09T13:12:57.709Z,13.57
2018-10-09T13:15:26.363Z,12.50
2018-10-09T13:17:54.689Z,13.37
2018-10-09T13:20:24.050Z,12.83
2018-10-09T13:22:52.486Z,13.73
2018-10-09T13:25:20.922Z,13.47
2018-10-09T13:27:49.126Z,12.27
2018-10-09T13:30:17.376Z,14.33
2018-10-09T13:32:46.675Z,15.20
2018-10-09T13:35:14.905Z,14.67
2018-10-09T13:37:43.146Z,15.37
2018-10-09T13:40:11.397Z,14.63
2018-10-09T13:42:39.650Z,14.97
2018-10-09T13:45:07.953Z,14.53
2018-10-09T13:47:36.298Z,14.50
2018-10-09T13:50:04.502Z,13.70
2018-10-09T13:52:32.820Z,12.37
2018-10-09T13:55:01.141Z,12.87
2018-10-09T13:57:29.431Z,12.43
2018-10-09T13:59:57.669Z,13.13
2018-10-09T14:02:26.082Z,12.67
2018-10-09T14:04:54.413Z,13.53
2018-10-09T14:07:22.649Z,13.43
2018-10-09T14:09:50.880Z,12.80
2018-10-09T14:12:19.307Z,12.27
2018-10-09T14:14:47.517Z,12.67
2018-10-09T14:17:15.733Z,12.77
2018-10-09T14:19:44.028Z,12.30
2018-10-09T14:22:12.505Z,12.23
2018-10-09T14:24:43.897Z,12.30
2018-10-09T14:27:12.125Z,12.30
2018-10-09T14:29:40.387Z,11.13
2018-10-09T14:32:08.629Z,11.90
2018-10-09T14:34:36.863Z,11.23
2018-10-09T14:37:05.192Z,11.10
2018-10-09T14:39:33.406Z,10.83
2018-10-09T14:42:01.653Z,11.50
2018-10-09T14:44:29.933Z,11.67
2018-10-09T14:46:58.178Z,11.17
2018-10-09T14:49:27.370Z,12.07
2018-10-09T14:51:55.561Z,11.73
2018-10-09T14:54:24.232Z,12.60
2018-10-09T14:56:52.521Z,11.57
2018-10-09T14:59:20.824Z,12.87
2018-10-09T15:01:49.091Z,12.33
2018-10-09T15:04:17.336Z,12.40
2018-10-09T15:06:52.601Z,12.17
2018-10-09T15:09:20.900Z,12.10
2018-10-09T15:11:49.135Z,12.43
2018-10-09T15:14:18.783Z,12.50
2018-10-09T15:16:48.265Z,11.27
2018-10-09T15:19:16.404Z,13.33
2018-10-09T15:21:47.105Z,12.03
2018-10-09T15:24:15.309Z,13.47
2018-10-09T15:26:43.582Z,12.40
2018-10-09T15:29:11.939Z,12.33
2018-10-09T15:31:40.052Z,12.47
2018-10-09T15:34:08.261Z,13.03
2018-10-09T15:36:36.499Z,12.70
2018-10-09T15:39:07.660Z,12.87
2018-10-09T15:41:35.995Z,13.30
2018-10-09T15:44:04.172Z,12.33
2018-10-09T15:46:32.427Z,13.77
2018-10-09T15:49:00.630Z,12.50
2018-10-09T15:51:28.909Z,13.13
2018-10-09T15:53:57.126Z,12.43
2018-10-09T15:56:25.385Z,12.60
2018-10-09T15:58:53.689Z,13.30
2018-10-09T16:01:21.906Z,13.07
2018-10-09T16:03:50.171Z,13.10
2018-10-09T16:06:18.401Z,12.03
2018-10-09T16:08:46.674Z,14.00
2018-10-09T16:11:14.941Z,12.47
2018-10-09T16:13:44.226Z,11.93
2018-10-09T16:16:14.682Z,11.80
2018-10-09T16:18:42.937Z,13.70
2018-10-09T16:21:11.225Z,13.37
2018-10-09T16:23:39.422Z,12.97
2018-10-09T16:26:07.701Z,13.27
2018-10-09T16:28:35.901Z,13.13
2018-10-09T16:31:04.113Z,14.23
2018-10-09T16:33:32.393Z,13.57
2018-10-09T16:36:00.617Z,13.23
2018-10-09T16:38:28.845Z,12.20
2018-10-09T16:40:57.110Z,13.50
2018-10-09T16:43:25.322Z,13.03
2018-10-09T16:45:53.717Z,13.37
2018-10-09T16:48:23.018Z,12.53
2018-10-09T16:50:51.326Z,13.27
2018-10-09T16:53:19.578Z,12.73
2018-10-09T16:55:47.790Z,12.43
2018-10-09T16:58:16.013Z,13.30
2018-10-09T17:00:44.246Z,13.77
2018-10-09T17:03:12.464Z,13.23
2018-10-09T17:05:40.784Z,13.97
2018-10-09T17:08:09.097Z,14.50
2018-10-09T17:10:37.357Z,14.10
2018-10-09T17:13:05.602Z,14.40
2018-10-09T17:15:33.937Z,15.70
2018-10-09T17:18:02.146Z,15.43
2018-10-09T17:20:30.357Z,14.77
2018-10-09T17:22:58.605Z,14.03
2018-10-09T17:25:26.805Z,14.43
2018-10-09T17:27:55.176Z,14.50
2018-10-09T17:30:23.401Z,14.80
2018-10-09T17:32:52.305Z,15.10
2018-10-09T17:35:20.618Z,15.77
2018-10-09T17:37:52.222Z,16.73
2018-10-09T17:40:20.525Z,15.73
2018-10-09T17:42:49.446Z,16.53
2018-10-09T17:45:17.724Z,16.67
2018-10-09T17:47:45.991Z,16.23
2018-10-09T17:50:14.215Z,18.03
2018-10-09T17:52:42.466Z,17.07
2018-10-09T17:55:10.737Z,17.63
2018-10-09T17:57:39.205Z,17.13
2018-10-09T18:00:08.388Z,17.83
2018-10-09T18:02:36.764Z,16.93
2018-10-09T18:05:05.386Z,17.27
2018-10-09T18:07:33.606Z,17.73
2018-10-09T18:10:01.991Z,16.73
2018-10-09T18:12:30.210Z,18.13
2018-10-09T18:14:58.493Z,17.00
2018-10-09T18:17:26.739Z,17.07
2018-10-09T18:19:54.974Z,17.30
2018-10-09T18:22:23.173Z,17.37
2018-10-09T18:24:51.511Z,17.00
2018-10-09T18:27:19.733Z,18.07
2018-10-09T18:29:47.971Z,18.23
2018-10-09T18:32:16.206Z,17.93
2018-10-09T18:34:44.504Z,17.70
2018-10-09T18:37:12.763Z,19.10
2018-10-09T18:39:41.025Z,19.83
2018-10-09T18:42:09.282Z,19.60
2018-10-09T18:44:37.584Z,18.73
2018-10-09T18:47:10.015Z,19.83
2018-10-09T18:49:38.257Z,17.47
2018-10-09T18:52:06.510Z,17.80
2018-10-09T18:54:34.729Z,18.73
2018-10-09T18:57:02.997Z,17.70
2018-10-09T18:59:31.250Z,17.30
2018-10-09T19:01:59.469Z,17.80
2018-10-09T19:04:27.725Z,19.03
2018-10-09T19:06:56.097Z,19.33
2018-10-09T19:09:24.332Z,17.73
2018-10-09T19:11:52.557Z,18.80
2018-10-09T19:14:20.871Z,19.57
2018-10-09T19:16:50.166Z,19.17
2018-10-09T19:19:18.427Z,18.03
2018-10-09T19:21:53.354Z,17.97
2018-10-09T19:24:21.635Z,17.83
2018-10-09T19:26:49.845Z,19.37
2018-10-09T19:29:18.091Z,20.27
2018-10-09T19:31:46.410Z,20.10
2018-10-09T19:34:14.636Z,19.53
2018-10-09T19:36:42.878Z,20.17
2018-10-09T19:39:13.026Z,19.87
2018-10-09T19:41:41.269Z,19.77
2018-10-09T19:44:09.525Z,20.63
2018-10-09T19:46:38.429Z,18.90
2018-10-09T19:49:06.722Z,19.47
2018-10-09T19:51:34.999Z,18.00
2018-10-09T19:54:03.232Z,18.13
2018-10-09T19:56:31.853Z,17.53
2018-10-09T19:59:00.166Z,17.67
2018-10-09T20:01:28.438Z,19.23
2018-10-09T20:03:56.665Z,18.97
2018-10-09T20:06:25.945Z,17.93
2018-10-09T20:08:54.192Z,19.63
2018-10-09T20:11:22.413Z,18.77
2018-10-09T20:13:50.624Z,17.30
2018-10-09T20:16:18.873Z,18.17
2018-10-09T20:18:47.174Z,17.90
2018-10-09T20:21:15.410Z,19.00
2018-10-09T20:23:43.619Z,19.00
2018-10-09T20:26:11.918Z,17.80
2018-10-09T20:28:40.146Z,18.30
2018-10-09T20:31:08.362Z,17.70
2018-10-09T20:33:36.586Z,19.27
2018-10-09T20:36:04.803Z,19.20
2018-10-09T20:38:33.089Z,18.77
2018-10-09T20:41:01.378Z,17.47
2018-10-09T20:43:29.602Z,20.23
2018-10-09T20:45:57.849Z,18.67
2018-10-09T20:48:26.102Z,19.87
2018-10-09T20:50:54.331Z,20.50
2018-10-09T20:53:22.574Z,20.83
2018-10-09T20:55:50.873Z,19.50
2018-10-09T20:58:19.138Z,19.10
2018-10-09T21:00:47.347Z,20.33
2018-10-09T21:03:15.601Z,19.20
2018-10-09T21:05:43.952Z,19.83
2018-10-09T21:08:12.094Z,19.23
2018-10-09T21:10:40.293Z,19.00
2018-10-09T21:13:08.516Z,19.70
2018-10-09T21:15:36.749Z,19.33
2018-10-09T21:18:05.002Z,18.40
2018-10-09T21:20:33.230Z,19.27
2018-10-09T21:23:01.445Z,20.07
2018-10-09T21:25:29.717Z,18.70
2018-10-09T21:27:57.931Z,19.43
2018-10-09T21:30:27.218Z,19.87
2018-10-09T21:32:55.443Z,20.60
2018-10-09T21:35:23.649Z,19.30
2018-10-09T21:37:51.885Z,18.00
2018-10-09T21:40:20.132Z,18.97
2018-10-09T21:42:48.326Z,19.57
2018-10-09T21:45:16.598Z,18.23
2018-10-09T21:47:50.180Z,18.80
2018-10-09T21:50:18.450Z,18.70
2018-10-09T21:52:46.668Z,18.90
2018-10-09T21:55:19.798Z,20.20
2018-10-09T21:57:48.282Z,20.00
2018-10-09T22:00:16.528Z,19.50
2018-10-09T22:02:44.807Z,19.80
2018-10-09T22:05:13.036Z,18.90
2018-10-09T22:07:41.296Z,19.00
2018-10-09T22:10:09.533Z,18.30
2018-10-09T22:12:37.777Z,19.70
2018-10-09T22:15:06.254Z,18.60
2018-10-09T22:17:34.521Z,19.73
2018-10-09T22:20:02.779Z,19.33
2018-10-09T22:22:31.010Z,19.27
2018-10-09T22:24:59.246Z,18.27
2018-10-09T22:27:27.491Z,19.17
2018-10-09T22:29:55.736Z,19.17
2018-10-09T22:32:23.966Z,18.73
2018-10-09T22:34:52.200Z,19.47
2018-10-09T22:37:21.537Z,18.77
2018-10-09T22:39:49.757Z,19.00
2018-10-09T22:42:17.980Z,18.63
2018-10-09T22:44:46.181Z,18.00
2018-10-09T22:47:14.406Z,18.40
2018-10-09T22:49:42.655Z,17.07
2018-10-09T22:52:10.898Z,17.90
2018-10-09T22:54:39.160Z,18.13
2018-10-09T22:57:07.402Z,18.07
2018-10-09T22:59:35.678Z,18.07
2018-10-09T23:02:03.917Z,18.40
2018-10-09T23:04:32.125Z,17.60
2018-10-09T23:07:00.355Z,16.80
2018-10-09T23:09:28.576Z,18.20
2018-10-09T23:11:56.881Z,18.20
2018-10-09T23:14:25.244Z,17.03
2018-10-09T23:16:53.539Z,16.60
2018-10-09T23:19:23.891Z,17.53
2018-10-09T23:21:52.109Z,17.20
2018-10-09T23:24:20.346Z,17.10
2018-10-09T23:26:48.638Z,17.90
2018-10-09T23:29:16.862Z,18.80
2018-10-09T23:31:45.154Z,17.27
2018-10-09T23:34:13.370Z,18.20
2018-10-09T23:36:41.622Z,18.93
2018-10-09T23:39:09.905Z,17.93
2018-10-09T23:41:38.126Z,19.33
2018-10-09T23:44:06.437Z,20.07
2018-10-09T23:46:34.700Z,19.57
2018-10-09T23:49:02.957Z,22.20
2018-10-09T23:51:31.191Z,22.77
2018-10-09T23:53:59.446Z,23.03
2018-10-09T23:56:27.743Z,23.57
2018-10-09T23:58:55.999Z,22.47
